Terminal Aerodrome Forecast
Issued by NWS

Home | Current Version | Previous Version | Text Only | Print | Product List | Glossary On
Versions: 1 2 3 4 5 6 7 8 9 10 11 12 13 14 15 16
945
FTUS46 KMTR 241120
TAFSTS
TAF
KSTS 241120Z 2412/2512 00000KT P6SM SKC
     FM241800 28003KT P6SM BKN150
     FM242100 25007KT P6SM BKN150
     FM250400 VRB03KT P6SM SCT020 BKN060
     FM250800 00000KT P6SM FEW020 BKN060=

USA.gov is the U.S. government's official web portal to all federal, state and local government web resources and services.